Poole, Kentucky
Current Conditions -  °F | °C
As of 8:15 AM on Saturday 25 Oct 2014 (Local Time) from K2I0 Reporting Station
Overcast Overcast  
Wind Chill: 16°   Ceiling: 3900
Heat Index: 16°   Visibility: 10mi
Dew Point: 14°   Wind: 8mph
Humidity: 86%   Direction: 220°SW
Pressure: 30.04"   Gusts: NA
Location:  37.64°N, 87.64°W
Report Text: K2I0 251315Z AUTO 22007KT 10SM OVC039 16/14 A3004 RMK AO2 T01590136
Loading
Personal Weather Stations






























Interactive Weather Map
Tropical Storm Tracking
New forecast layout! Learn more

10-Day Weather Forecast

Advertisements
Track Severe Weather on mobile